Time;durP1;ratioP1;P1;durP2;ratioP2;P2;SDS_P1;SDS_P2;PMS_P1;PMS_P2;Temp;Humidity;BMP_temperature;BMP_pressure;BME280_temperature;BME280_humidity;BME280_pressure;Samples;Min_cycle;Max_cycle;Signal;HPM_P1;HPM_P2
2022/06/28 00:02:06;;;;;;;2.33;1.98;;;;;;;;;;5092963;28;20032;-85
2022/06/28 00:04:31;;;;;;;2.10;1.90;;;;;;;;;;5093874;28;20020;-85
2022/06/28 00:06:57;;;;;;;2.10;1.90;;;;;;;;;;5093022;28;20459;-84
2022/06/28 00:09:23;;;;;;;2.53;2.03;;;;;;;;;;5093688;28;20241;-82
2022/06/28 00:11:48;;;;;;;2.13;1.77;;;;;;;;;;5091946;28;20097;-84
2022/06/28 00:16:58;;;;;;;2.17;1.92;;;;;;;;;;5083788;28;20058;-83
2022/06/28 00:19:24;;;;;;;2.88;2.00;;;;;;;;;;5088621;28;20040;-83
2022/06/28 00:21:50;;;;;;;2.17;1.67;;;;;;;;;;5094319;28;20020;-83
2022/06/28 00:24:16;;;;;;;2.90;1.73;;;;;;;;;;5089500;28;20032;-84
2022/06/28 00:26:42;;;;;;;3.10;1.67;;;;;;;;;;5091290;28;20032;-85
2022/06/28 00:29:08;;;;;;;2.10;1.90;;;;;;;;;;5090061;28;20020;-84
2022/06/28 00:31:33;;;;;;;3.08;2.10;;;;;;;;;;5091058;28;20115;-87
2022/06/28 00:33:59;;;;;;;2.20;2.00;;;;;;;;;;5089494;28;20107;-83
2022/06/28 00:36:24;;;;;;;2.22;1.55;;;;;;;;;;5092603;28;20031;-88
2022/06/28 00:38:50;;;;;;;1.88;1.50;;;;;;;;;;5090914;28;20028;-84
2022/06/28 00:41:16;;;;;;;2.90;1.60;;;;;;;;;;5092423;28;20489;-86
2022/06/28 00:43:42;;;;;;;2.97;1.85;;;;;;;;;;5088032;28;20069;-85
2022/06/28 00:46:08;;;;;;;1.85;1.75;;;;;;;;;;5092230;28;20023;-87
2022/06/28 00:48:34;;;;;;;2.90;1.80;;;;;;;;;;5088389;28;20036;-84
2022/06/28 00:51:01;;;;;;;2.33;1.60;;;;;;;;;;5091644;28;20050;-85
2022/06/28 00:53:27;;;;;;;2.58;1.90;;;;;;;;;;5089859;28;20183;-85
2022/06/28 00:55:52;;;;;;;2.15;1.85;;;;;;;;;;5093451;28;20024;-85
2022/06/28 00:58:18;;;;;;;2.30;1.65;;;;;;;;;;5090378;28;20410;-85
2022/06/28 01:00:49;;;;;;;2.10;1.73;;;;;;;;;;5092704;28;20034;-87
2022/06/28 01:03:18;;;;;;;2.78;2.00;;;;;;;;;;5091889;28;20379;-86
2022/06/28 01:05:44;;;;;;;2.20;1.70;;;;;;;;;;5092020;28;20024;-85
2022/06/28 01:08:10;;;;;;;2.58;1.90;;;;;;;;;;5092714;28;20031;-85
2022/06/28 01:10:36;;;;;;;2.08;1.80;;;;;;;;;;5092620;28;20032;-85
2022/06/28 01:13:03;;;;;;;1.98;1.80;;;;;;;;;;5092520;28;20030;-86
2022/06/28 01:15:29;;;;;;;2.97;2.20;;;;;;;;;;5092278;28;20042;-86
2022/06/28 01:17:55;;;;;;;2.13;1.73;;;;;;;;;;5091449;28;20380;-85
2022/06/28 01:20:21;;;;;;;2.28;1.90;;;;;;;;;;5089793;28;20106;-85
2022/06/28 01:22:47;;;;;;;2.00;1.70;;;;;;;;;;5092811;28;20100;-86
2022/06/28 01:25:12;;;;;;;2.00;1.80;;;;;;;;;;5088192;28;20028;-86
2022/06/28 01:27:40;;;;;;;2.13;1.75;;;;;;;;;;5089575;28;20023;-84
2022/06/28 01:30:07;;;;;;;3.08;2.10;;;;;;;;;;5091189;28;20873;-85
2022/06/28 01:32:33;;;;;;;2.22;1.77;;;;;;;;;;5092771;28;20035;-84
2022/06/28 01:35:00;;;;;;;1.75;1.65;;;;;;;;;;5091110;28;20482;-84
2022/06/28 01:37:26;;;;;;;2.33;1.80;;;;;;;;;;5091938;28;20100;-86
2022/06/28 01:39:51;;;;;;;1.83;1.63;;;;;;;;;;5090518;28;20107;-86
2022/06/28 01:42:17;;;;;;;1.60;1.45;;;;;;;;;;5090863;28;20498;-85
2022/06/28 01:44:45;;;;;;;4.05;1.70;;;;;;;;;;5091972;28;20108;-84
2022/06/28 01:47:12;;;;;;;1.67;1.58;;;;;;;;;;5091888;28;20016;-85
2022/06/28 01:49:38;;;;;;;1.85;1.70;;;;;;;;;;5090494;28;20396;-84
2022/06/28 01:52:04;;;;;;;2.80;1.60;;;;;;;;;;5092063;28;20056;-86
2022/06/28 01:54:29;;;;;;;2.30;1.58;;;;;;;;;;5090982;28;20039;-84
2022/06/28 01:56:55;;;;;;;1.98;1.77;;;;;;;;;;5092505;28;20040;-85
2022/06/28 01:59:21;;;;;;;2.15;1.80;;;;;;;;;;5090875;28;20028;-86
2022/06/28 02:01:47;;;;;;;3.83;1.80;;;;;;;;;;5091262;28;20448;-83
2022/06/28 02:04:27;;;;;;;1.83;1.70;;;;;;;;;;5090199;28;20035;-85
2022/06/28 02:06:54;;;;;;;1.63;1.30;;;;;;;;;;5091110;28;21275;-85
2022/06/28 02:09:19;;;;;;;1.85;1.63;;;;;;;;;;5092248;28;20106;-84
2022/06/28 02:11:45;;;;;;;1.77;1.50;;;;;;;;;;5090174;28;20111;-86
2022/06/28 02:14:11;;;;;;;2.10;1.42;;;;;;;;;;5090921;28;20498;-87
2022/06/28 02:16:37;;;;;;;1.88;1.58;;;;;;;;;;5089206;28;20028;-86
2022/06/28 02:19:03;;;;;;;1.90;1.40;;;;;;;;;;5092584;28;20020;-85
2022/06/28 02:21:37;;;;;;;2.33;1.75;;;;;;;;;;5092358;28;20525;-86
2022/06/28 02:24:04;;;;;;;2.28;1.60;;;;;;;;;;5091341;28;20034;-84
2022/06/28 02:26:32;;;;;;;1.60;1.50;;;;;;;;;;5090461;28;20886;-85
2022/06/28 02:28:59;;;;;;;1.75;1.33;;;;;;;;;;5091500;28;20020;-86
2022/06/28 02:31:24;;;;;;;1.98;1.30;;;;;;;;;;5090629;28;20467;-86
2022/06/28 02:33:51;;;;;;;2.97;1.50;;;;;;;;;;5090944;28;20024;-86
2022/06/28 02:41:41;;;;;;;2.00;1.45;;;;;;;;;;5091292;28;20376;-83
2022/06/28 02:44:06;;;;;;;1.33;1.23;;;;;;;;;;5090632;28;20073;-85
2022/06/28 02:46:32;;;;;;;3.03;1.50;;;;;;;;;;5089885;28;20034;-85
2022/06/28 02:48:57;;;;;;;1.65;1.40;;;;;;;;;;5091431;28;20103;-86
2022/06/28 02:51:23;;;;;;;1.98;1.50;;;;;;;;;;5089743;28;20031;-85
2022/06/28 02:53:48;;;;;;;1.65;1.52;;;;;;;;;;5091031;28;20048;-84
2022/06/28 02:56:14;;;;;;;1.95;1.45;;;;;;;;;;5090938;28;20485;-84
2022/06/28 02:58:40;;;;;;;2.30;1.63;;;;;;;;;;5089853;28;20538;-84
2022/06/28 03:01:06;;;;;;;3.45;1.67;;;;;;;;;;5090045;28;20036;-85
2022/06/28 03:03:31;;;;;;;1.52;1.42;;;;;;;;;;5090099;28;20020;-86
2022/06/28 03:05:57;;;;;;;1.92;1.73;;;;;;;;;;5089045;28;20028;-84
2022/06/28 03:08:22;;;;;;;2.00;1.60;;;;;;;;;;5090821;28;20020;-85
2022/06/28 03:10:48;;;;;;;1.90;1.45;;;;;;;;;;5090034;28;20115;-83
2022/06/28 03:13:13;;;;;;;1.52;1.30;;;;;;;;;;5089260;28;20020;-84
2022/06/28 03:15:39;;;;;;;1.45;1.35;;;;;;;;;;5091242;28;20028;-86
2022/06/28 03:18:04;;;;;;;2.47;1.50;;;;;;;;;;5090773;28;20382;-86
2022/06/28 03:20:30;;;;;;;2.78;1.50;;;;;;;;;;5085955;28;21802;-84
2022/06/28 03:22:56;;;;;;;2.15;1.50;;;;;;;;;;5085203;28;20033;-85
2022/06/28 03:25:21;;;;;;;2.75;2.03;;;;;;;;;;5083051;28;20460;-85
2022/06/28 03:27:47;;;;;;;2.35;1.70;;;;;;;;;;5085254;28;20028;-86
2022/06/28 03:30:13;;;;;;;1.67;1.58;;;;;;;;;;5087580;28;20512;-86
2022/06/28 03:32:39;;;;;;;2.22;1.80;;;;;;;;;;5088838;28;20023;-85
2022/06/28 03:35:05;;;;;;;3.45;2.00;;;;;;;;;;5090548;28;20107;-87
2022/06/28 03:37:31;;;;;;;3.03;1.63;;;;;;;;;;5093575;28;20047;-84
2022/06/28 03:39:56;;;;;;;3.03;1.83;;;;;;;;;;5092980;28;20023;-87
2022/06/28 03:42:22;;;;;;;2.10;1.42;;;;;;;;;;5092712;28;20146;-87
2022/06/28 03:44:47;;;;;;;1.63;1.30;;;;;;;;;;5092307;28;20024;-87
2022/06/28 03:47:13;;;;;;;2.47;1.60;;;;;;;;;;5091991;28;20024;-85
2022/06/28 03:49:38;;;;;;;5.10;4.60;;;;;;;;;;5090756;28;20039;-84
2022/06/28 03:52:04;;;;;;;3.83;2.17;;;;;;;;;;5091939;28;20532;-86
2022/06/28 03:54:30;;;;;;;6.40;5.57;;;;;;;;;;5093093;28;20020;-87
2022/06/28 03:56:55;;;;;;;2.70;2.38;;;;;;;;;;5094440;28;20024;-88
2022/06/28 03:59:21;;;;;;;3.00;2.42;;;;;;;;;;5092763;28;20055;-85
2022/06/28 04:01:46;;;;;;;2.70;2.20;;;;;;;;;;5094321;28;20067;-85
2022/06/28 04:04:11;;;;;;;2.10;1.90;;;;;;;;;;5094101;28;20028;-87
2022/06/28 04:06:37;;;;;;;2.28;1.95;;;;;;;;;;5092713;28;20123;-87
2022/06/28 04:09:02;;;;;;;3.20;1.88;;;;;;;;;;5092305;28;20031;-87
2022/06/28 04:11:28;;;;;;;4.22;2.10;;;;;;;;;;5092534;28;20024;-85
2022/06/28 04:13:54;;;;;;;2.58;1.95;;;;;;;;;;5092422;28;20418;-85
2022/06/28 04:16:23;;;;;;;3.35;2.47;;;;;;;;;;5089335;28;20471;-85
2022/06/28 04:18:49;;;;;;;3.40;2.92;;;;;;;;;;5093074;28;20067;-86
2022/06/28 04:21:17;;;;;;;4.13;2.65;;;;;;;;;;5093473;28;20020;-86
2022/06/28 04:23:43;;;;;;;2.97;2.72;;;;;;;;;;5090998;28;20391;-84
2022/06/28 04:26:09;;;;;;;3.60;2.90;;;;;;;;;;5092552;28;20479;-86
2022/06/28 04:28:34;;;;;;;4.07;2.90;;;;;;;;;;5094167;28;20055;-86
2022/06/28 04:31:00;;;;;;;3.03;2.70;;;;;;;;;;5093795;28;20529;-86
2022/06/28 04:33:26;;;;;;;2.55;2.35;;;;;;;;;;5093866;28;20532;-87
2022/06/28 04:35:52;;;;;;;3.92;2.90;;;;;;;;;;5091916;28;20031;-85
2022/06/28 04:38:18;;;;;;;4.13;3.70;;;;;;;;;;5093379;28;20019;-83
2022/06/28 04:40:44;;;;;;;4.45;3.35;;;;;;;;;;5092975;28;20020;-84
2022/06/28 04:43:10;;;;;;;4.22;3.60;;;;;;;;;;5091073;28;20023;-86
2022/06/28 04:45:35;;;;;;;6.80;3.13;;;;;;;;;;5091640;28;20039;-86
2022/06/28 04:48:01;;;;;;;5.15;3.78;;;;;;;;;;5093760;28;20036;-86
2022/06/28 04:50:26;;;;;;;4.93;2.90;;;;;;;;;;5088662;28;20483;-85
2022/06/28 04:52:52;;;;;;;4.18;3.10;;;;;;;;;;5089152;28;20047;-84
2022/06/28 04:55:18;;;;;;;3.92;2.85;;;;;;;;;;5093583;28;20464;-84
2022/06/28 04:57:44;;;;;;;3.30;3.00;;;;;;;;;;5092127;28;20138;-85
2022/06/28 05:00:10;;;;;;;4.82;3.28;;;;;;;;;;5093133;28;20107;-84
2022/06/28 05:02:36;;;;;;;4.55;3.63;;;;;;;;;;5090137;28;20035;-84
2022/06/28 05:05:07;;;;;;;4.43;3.90;;;;;;;;;;5093151;28;20088;-84
2022/06/28 05:07:33;;;;;;;4.75;3.88;;;;;;;;;;5090347;28;20475;-83
2022/06/28 05:09:59;;;;;;;3.80;3.20;;;;;;;;;;5089662;28;20028;-85
2022/06/28 05:12:25;;;;;;;3.78;3.38;;;;;;;;;;5090926;28;20036;-84
2022/06/28 05:14:50;;;;;;;3.70;3.05;;;;;;;;;;5091122;28;20050;-83
2022/06/28 05:17:16;;;;;;;5.72;5.07;;;;;;;;;;5090384;28;20482;-83
2022/06/28 05:19:42;;;;;;;5.13;4.00;;;;;;;;;;5091760;28;20107;-83
2022/06/28 05:22:10;;;;;;;4.60;3.80;;;;;;;;;;5089582;28;20024;-84
2022/06/28 05:24:37;;;;;;;7.72;4.57;;;;;;;;;;5092804;28;20028;-83
2022/06/28 05:27:03;;;;;;;5.40;4.90;;;;;;;;;;5091191;28;20038;-83
2022/06/28 05:29:29;;;;;;;5.55;4.35;;;;;;;;;;5084428;28;20031;-82
2022/06/28 05:31:54;;;;;;;5.65;4.53;;;;;;;;;;5090337;28;20382;-85
2022/06/28 05:34:20;;;;;;;5.05;4.55;;;;;;;;;;5091590;28;20024;-84
2022/06/28 05:36:46;;;;;;;5.30;4.40;;;;;;;;;;5092212;28;20114;-82
2022/06/28 05:39:11;;;;;;;4.60;4.10;;;;;;;;;;5084078;28;20028;-84
2022/06/28 05:41:37;;;;;;;5.10;4.22;;;;;;;;;;5087750;28;20426;-82
2022/06/28 05:44:04;;;;;;;5.20;4.70;;;;;;;;;;5088768;28;20024;-83
2022/06/28 05:46:29;;;;;;;6.72;4.60;;;;;;;;;;5090241;28;20028;-83
2022/06/28 05:48:55;;;;;;;5.10;4.60;;;;;;;;;;5089919;28;20039;-83
2022/06/28 05:51:21;;;;;;;5.30;4.80;;;;;;;;;;5086802;28;20024;-84
2022/06/28 05:53:46;;;;;;;5.05;4.43;;;;;;;;;;5091373;28;20047;-81
2022/06/28 05:56:12;;;;;;;7.72;4.93;;;;;;;;;;5090280;28;20024;-85
2022/06/28 05:58:37;;;;;;;5.43;4.93;;;;;;;;;;5088891;28;20067;-84
2022/06/28 06:01:03;;;;;;;6.07;4.70;;;;;;;;;;5087820;28;20035;-85
2022/06/28 06:03:29;;;;;;;6.30;4.97;;;;;;;;;;5082871;28;20024;-84
2022/06/28 06:05:55;;;;;;;7.70;5.13;;;;;;;;;;5090350;28;20467;-84
2022/06/28 06:08:21;;;;;;;6.25;5.50;;;;;;;;;;5087204;28;20047;-83
2022/06/28 06:10:46;;;;;;;7.10;5.53;;;;;;;;;;5091130;28;20028;-83
2022/06/28 06:13:12;;;;;;;6.38;5.00;;;;;;;;;;5087465;28;20490;-86
2022/06/28 06:15:37;;;;;;;8.13;5.70;;;;;;;;;;5086612;28;20077;-83
2022/06/28 06:18:02;;;;;;;7.53;5.30;;;;;;;;;;5087490;28;20020;-89
2022/06/28 06:20:28;;;;;;;6.18;5.28;;;;;;;;;;5089382;28;20096;-90
2022/06/28 06:22:53;;;;;;;5.40;4.90;;;;;;;;;;5088191;28;20028;-83
2022/06/28 06:25:19;;;;;;;6.95;5.00;;;;;;;;;;5086180;28;20026;-84
2022/06/28 06:27:44;;;;;;;6.28;4.43;;;;;;;;;;5084930;28;20028;-85
2022/06/28 06:30:10;;;;;;;7.90;5.05;;;;;;;;;;5088843;28;20115;-81
2022/06/28 06:32:36;;;;;;;4.85;4.20;;;;;;;;;;5084837;28;20031;-84
2022/06/28 06:35:01;;;;;;;6.35;4.93;;;;;;;;;;5085574;28;20028;-83
2022/06/28 06:37:27;;;;;;;6.38;4.50;;;;;;;;;;5083222;28;20376;-86
2022/06/28 06:39:53;;;;;;;6.63;4.03;;;;;;;;;;5088350;28;20038;-83
2022/06/28 06:42:18;;;;;;;4.55;4.13;;;;;;;;;;5083134;28;20024;-89
2022/06/28 06:44:44;;;;;;;7.45;4.43;;;;;;;;;;5083211;28;20081;-88
2022/06/28 06:47:09;;;;;;;5.25;3.90;;;;;;;;;;5082088;28;20024;-85
2022/06/28 06:49:35;;;;;;;5.30;3.83;;;;;;;;;;5088830;28;20028;-85
2022/06/28 06:52:00;;;;;;;4.50;3.65;;;;;;;;;;5084868;28;20044;-84
2022/06/28 06:54:26;;;;;;;4.18;3.55;;;;;;;;;;5083426;28;20035;-83
2022/06/28 06:56:51;;;;;;;4.65;3.60;;;;;;;;;;5088174;28;20417;-84
2022/06/28 06:59:17;;;;;;;3.63;3.05;;;;;;;;;;5090070;28;20531;-83
2022/06/28 07:01:43;;;;;;;3.05;2.72;;;;;;;;;;5083432;28;20411;-85
2022/06/28 07:04:09;;;;;;;5.00;4.40;;;;;;;;;;5092550;28;20035;-83
2022/06/28 07:06:36;;;;;;;5.03;3.28;;;;;;;;;;5093151;28;20494;-86
2022/06/28 07:09:02;;;;;;;3.70;2.67;;;;;;;;;;5090880;28;20039;-82
2022/06/28 07:11:28;;;;;;;3.35;2.95;;;;;;;;;;5091209;28;20022;-85
2022/06/28 07:13:53;;;;;;;4.18;2.95;;;;;;;;;;5091952;28;20027;-83
2022/06/28 07:16:19;;;;;;;5.05;3.20;;;;;;;;;;5089575;28;20549;-85
2022/06/28 07:18:44;;;;;;;6.90;3.67;;;;;;;;;;5091011;28;20029;-85
2022/06/28 07:21:10;;;;;;;8.23;7.43;;;;;;;;;;5088657;28;20074;-85
2022/06/28 07:23:35;;;;;;;8.77;6.85;;;;;;;;;;5092558;28;20036;-84
2022/06/28 07:26:01;;;;;;;4.43;3.53;;;;;;;;;;5093687;28;20028;-87
2022/06/28 07:28:26;;;;;;;6.85;3.60;;;;;;;;;;5092589;28;20081;-86
2022/06/28 07:30:52;;;;;;;6.25;3.78;;;;;;;;;;5094045;28;20371;-84
2022/06/28 07:33:17;;;;;;;5.90;3.50;;;;;;;;;;5092323;28;20020;-86
2022/06/28 07:35:44;;;;;;;3.47;3.17;;;;;;;;;;5089053;28;20479;-81
2022/06/28 07:38:10;;;;;;;5.30;3.40;;;;;;;;;;5089198;28;20020;-84
2022/06/28 07:40:36;;;;;;;8.13;3.67;;;;;;;;;;5090173;28;20395;-83
2022/06/28 07:43:01;;;;;;;4.72;3.10;;;;;;;;;;5089831;28;20020;-82
2022/06/28 07:45:27;;;;;;;5.28;2.97;;;;;;;;;;5091776;28;20107;-83
2022/06/28 07:47:52;;;;;;;5.20;2.80;;;;;;;;;;5090465;28;20024;-84
2022/06/28 07:53:04;;;;;;;3.10;2.50;;;;;;;;;;5092003;28;20093;-81
2022/06/28 07:55:30;;;;;;;3.47;2.85;;;;;;;;;;5091332;28;20077;-85
2022/06/28 07:57:57;;;;;;;4.28;3.15;;;;;;;;;;5089720;28;20020;-84
2022/06/28 08:00:23;;;;;;;3.95;2.45;;;;;;;;;;5091482;28;20109;-83
2022/06/28 08:02:49;;;;;;;2.90;2.58;;;;;;;;;;5088377;28;20444;-82
2022/06/28 08:05:15;;;;;;;3.47;2.55;;;;;;;;;;5093575;28;20048;-83
2022/06/28 08:07:40;;;;;;;8.00;2.80;;;;;;;;;;5088623;28;20391;-82
2022/06/28 08:10:07;;;;;;;6.43;2.50;;;;;;;;;;5083409;28;20028;-83
2022/06/28 08:12:33;;;;;;;2.67;2.00;;;;;;;;;;5084112;28;20083;-82
2022/06/28 08:14:58;;;;;;;3.03;2.17;;;;;;;;;;5085362;28;20464;-85
2022/06/28 08:17:24;;;;;;;3.35;2.67;;;;;;;;;;5091316;28;20077;-84
2022/06/28 08:19:49;;;;;;;4.53;2.40;;;;;;;;;;5090234;28;20028;-87
2022/06/28 08:22:15;;;;;;;5.10;2.10;;;;;;;;;;5090628;28;20113;-84
2022/06/28 08:24:41;;;;;;;2.47;1.90;;;;;;;;;;5093076;28;20059;-84
2022/06/28 08:27:06;;;;;;;3.78;1.75;;;;;;;;;;5091849;28;20039;-84
2022/06/28 08:29:33;;;;;;;2.25;1.83;;;;;;;;;;5092414;28;20107;-84
2022/06/28 08:31:59;;;;;;;2.00;1.77;;;;;;;;;;5090330;28;20035;-85
2022/06/28 08:34:25;;;;;;;3.95;1.60;;;;;;;;;;5086620;28;20023;-84
2022/06/28 08:36:50;;;;;;;2.25;1.60;;;;;;;;;;5083190;28;20024;-84
2022/06/28 08:39:16;;;;;;;2.25;1.73;;;;;;;;;;5090454;28;20035;-83
2022/06/28 08:41:43;;;;;;;1.98;1.45;;;;;;;;;;5090926;28;20059;-81
2022/06/28 08:44:10;;;;;;;1.90;1.40;;;;;;;;;;5091191;28;20121;-83
2022/06/28 08:46:37;;;;;;;2.15;1.67;;;;;;;;;;5090133;28;20039;-84
2022/06/28 08:49:11;;;;;;;2.10;1.60;;;;;;;;;;5092264;28;20101;-84
2022/06/28 08:51:38;;;;;;;3.28;1.75;;;;;;;;;;5092666;28;20028;-82
2022/06/28 08:54:04;;;;;;;1.80;1.70;;;;;;;;;;5092509;28;20132;-82
2022/06/28 08:56:29;;;;;;;1.70;1.58;;;;;;;;;;5089122;28;20115;-85
2022/06/28 08:58:58;;;;;;;1.60;1.42;;;;;;;;;;5086330;28;20039;-83
2022/06/28 09:01:26;;;;;;;2.38;1.60;;;;;;;;;;5083534;28;20035;-83
2022/06/28 09:03:53;;;;;;;1.67;1.58;;;;;;;;;;5089142;28;20028;-84
2022/06/28 09:06:19;;;;;;;2.03;1.50;;;;;;;;;;5088033;28;20162;-83
2022/06/28 09:08:45;;;;;;;2.22;1.65;;;;;;;;;;5085396;28;20439;-84
2022/06/28 09:11:11;;;;;;;4.70;2.58;;;;;;;;;;5082805;28;20059;-84
2022/06/28 09:13:37;;;;;;;2.03;1.80;;;;;;;;;;5086553;28;20065;-83
2022/06/28 09:16:04;;;;;;;2.38;1.70;;;;;;;;;;5090258;28;20032;-85
2022/06/28 09:18:35;;;;;;;2.72;1.73;;;;;;;;;;5086636;28;20023;-84
2022/06/28 09:21:05;;;;;;;2.35;1.85;;;;;;;;;;5081093;28;20024;-83
2022/06/28 09:23:35;;;;;;;1.60;1.42;;;;;;;;;;5085424;28;20055;-84
2022/06/28 09:26:07;;;;;;;3.00;1.77;;;;;;;;;;5088423;28;20536;-84
2022/06/28 09:28:40;;;;;;;1.77;1.63;;;;;;;;;;5085820;28;20395;-84
2022/06/28 09:31:13;;;;;;;1.88;1.75;;;;;;;;;;5087187;28;20502;-83
2022/06/28 09:33:39;;;;;;;1.92;1.60;;;;;;;;;;5089777;28;20028;-83
2022/06/28 09:36:05;;;;;;;1.80;1.52;;;;;;;;;;5090270;28;22117;-84
2022/06/28 09:38:32;;;;;;;2.03;1.70;;;;;;;;;;5083140;28;20040;-84
2022/06/28 09:41:01;;;;;;;4.22;1.98;;;;;;;;;;5088420;28;20027;-83
2022/06/28 09:43:32;;;;;;;2.33;1.73;;;;;;;;;;5089542;28;20028;-83
2022/06/28 09:46:02;;;;;;;1.90;1.70;;;;;;;;;;5087738;28;20024;-84
2022/06/28 09:48:32;;;;;;;3.10;1.80;;;;;;;;;;5088807;28;20027;-86
2022/06/28 09:50:58;;;;;;;2.30;1.90;;;;;;;;;;5089034;28;20059;-85
2022/06/28 09:53:27;;;;;;;2.38;1.73;;;;;;;;;;5092700;28;20084;-82
2022/06/28 09:55:53;;;;;;;1.95;1.77;;;;;;;;;;5089538;28;20035;-84
2022/06/28 09:58:20;;;;;;;1.90;1.70;;;;;;;;;;5093399;28;20054;-81
2022/06/28 10:00:46;;;;;;;1.98;1.77;;;;;;;;;;5089471;28;20470;-83
2022/06/28 10:03:11;;;;;;;3.40;1.85;;;;;;;;;;5092594;28;20020;-83
2022/06/28 10:05:38;;;;;;;2.08;1.80;;;;;;;;;;5092678;28;20023;-83
2022/06/28 10:08:04;;;;;;;3.13;2.03;;;;;;;;;;5092446;28;20028;-83
2022/06/28 10:10:30;;;;;;;3.30;2.03;;;;;;;;;;5092681;28;20032;-84
2022/06/28 10:16:05;;;;;;;3.80;1.90;;;;;;;;;;5086430;28;20054;-81
2022/06/28 10:18:31;;;;;;;2.05;1.80;;;;;;;;;;5089718;28;20030;-83
2022/06/28 10:20:57;;;;;;;2.85;1.80;;;;;;;;;;5088800;28;20107;-83
2022/06/28 10:23:33;;;;;;;2.13;1.90;;;;;;;;;;5086239;28;20111;-83
2022/06/28 10:26:04;;;;;;;3.92;1.85;;;;;;;;;;5088567;28;20460;-84
2022/06/28 10:29:09;;;;;;;2.95;1.80;;;;;;;;;;5086597;28;20425;-83
2022/06/28 10:31:44;;;;;;;1.80;1.60;;;;;;;;;;5091725;28;20064;-86
2022/06/28 10:34:15;;;;;;;6.57;2.03;;;;;;;;;;5090531;28;20085;-83
2022/06/28 10:36:54;;;;;;;1.90;1.70;;;;;;;;;;5091888;28;20364;-85
2022/06/28 10:39:31;;;;;;;3.13;1.90;;;;;;;;;;5090518;28;20813;-82
2022/06/28 10:42:00;;;;;;;1.65;1.55;;;;;;;;;;5086510;28;20449;-85
2022/06/28 10:44:47;;;;;;;1.90;1.75;;;;;;;;;;5090447;28;20043;-84
2022/06/28 10:47:16;;;;;;;2.25;1.95;;;;;;;;;;5087232;28;20051;-84
2022/06/28 10:49:42;;;;;;;1.70;1.60;;;;;;;;;;5086767;28;20024;-84
2022/06/28 10:52:15;;;;;;;3.10;1.75;;;;;;;;;;5090511;28;20364;-85
2022/06/28 10:54:56;;;;;;;2.78;1.70;;;;;;;;;;5088274;28;20033;-83
2022/06/28 10:57:26;;;;;;;3.15;1.55;;;;;;;;;;5087257;28;20031;-84
2022/06/28 10:59:54;;;;;;;1.95;1.50;;;;;;;;;;5120872;28;20474;-85
2022/06/28 11:02:20;;;;;;;2.13;1.70;;;;;;;;;;5088108;28;20140;-84
2022/06/28 11:04:46;;;;;;;2.10;1.90;;;;;;;;;;5088402;28;20047;-86
2022/06/28 11:07:25;;;;;;;2.08;1.73;;;;;;;;;;5085447;28;20085;-85
2022/06/28 11:10:16;;;;;;;2.03;1.63;;;;;;;;;;5087858;28;20036;-85
2022/06/28 11:12:42;;;;;;;2.40;1.67;;;;;;;;;;5080397;28;20044;-84
2022/06/28 11:15:26;;;;;;;2.05;1.70;;;;;;;;;;5086103;28;20029;-84
2022/06/28 11:17:51;;;;;;;2.72;1.70;;;;;;;;;;5088445;28;20403;-83
2022/06/28 11:20:21;;;;;;;3.65;1.83;;;;;;;;;;5085151;28;20028;-85
2022/06/28 11:22:48;;;;;;;2.17;1.70;;;;;;;;;;5087168;28;20020;-84
2022/06/28 11:25:16;;;;;;;2.42;1.85;;;;;;;;;;5085648;28;20063;-83
2022/06/28 11:27:48;;;;;;;3.35;1.90;;;;;;;;;;5084475;28;20428;-84
2022/06/28 11:30:15;;;;;;;2.30;1.70;;;;;;;;;;5085064;28;20028;-85
2022/06/28 11:32:43;;;;;;;2.50;1.75;;;;;;;;;;5086903;28;20020;-83
2022/06/28 11:35:20;;;;;;;2.60;2.13;;;;;;;;;;5087406;28;20024;-83
2022/06/28 11:37:55;;;;;;;1.92;1.70;;;;;;;;;;5087048;28;20051;-84
2022/06/28 11:40:28;;;;;;;3.35;1.75;;;;;;;;;;5085998;28;20475;-83
2022/06/28 11:43:26;;;;;;;1.63;1.52;;;;;;;;;;5087243;28;20464;-83
2022/06/28 11:45:53;;;;;;;2.47;1.55;;;;;;;;;;5086346;28;20032;-84
2022/06/28 11:48:27;;;;;;;2.10;1.60;;;;;;;;;;5087244;28;20107;-84
2022/06/28 11:50:55;;;;;;;3.63;1.80;;;;;;;;;;5085116;28;20483;-84
2022/06/28 11:53:22;;;;;;;2.13;1.58;;;;;;;;;;5086945;28;20040;-86
2022/06/28 11:55:52;;;;;;;1.92;1.73;;;;;;;;;;5090020;28;20082;-84
2022/06/28 11:58:21;;;;;;;2.85;1.98;;;;;;;;;;5089329;28;20093;-86
2022/06/28 12:01:05;;;;;;;2.00;1.80;;;;;;;;;;5093922;28;20104;-86
2022/06/28 12:03:32;;;;;;;3.42;1.60;;;;;;;;;;5088101;28;20027;-86
2022/06/28 12:06:00;;;;;;;2.90;1.83;;;;;;;;;;5083499;28;20027;-83
2022/06/28 12:08:51;;;;;;;3.47;1.70;;;;;;;;;;5085317;28;20043;-85
2022/06/28 12:11:28;;;;;;;2.88;1.50;;;;;;;;;;5093611;28;20098;-85
2022/06/28 12:13:55;;;;;;;2.25;1.50;;;;;;;;;;5087591;28;20038;-85
2022/06/28 12:16:20;;;;;;;2.42;1.60;;;;;;;;;;5087657;28;20026;-86
2022/06/28 12:18:53;;;;;;;2.38;1.42;;;;;;;;;;5089058;28;20103;-86
2022/06/28 12:21:19;;;;;;;2.05;1.30;;;;;;;;;;5083376;28;20028;-87
2022/06/28 12:23:53;;;;;;;3.47;1.60;;;;;;;;;;5092907;28;20448;-85
2022/06/28 12:26:20;;;;;;;2.38;1.58;;;;;;;;;;5085162;28;20569;-85
2022/06/28 12:28:46;;;;;;;2.42;1.70;;;;;;;;;;5089821;28;20029;-86
2022/06/28 12:31:11;;;;;;;4.07;1.77;;;;;;;;;;5088017;28;20050;-87
2022/06/28 12:33:36;;;;;;;2.50;1.50;;;;;;;;;;5089664;28;20024;-84
2022/06/28 12:36:02;;;;;;;1.70;1.40;;;;;;;;;;5087336;28;20028;-86
2022/06/28 12:38:27;;;;;;;2.08;1.50;;;;;;;;;;5090884;28;20035;-86
2022/06/28 12:40:53;;;;;;;1.90;1.42;;;;;;;;;;5088817;28;20076;-87
2022/06/28 12:43:18;;;;;;;2.63;1.27;;;;;;;;;;5088784;28;20067;-84
2022/06/28 12:45:44;;;;;;;2.30;1.52;;;;;;;;;;5090955;28;20055;-85
2022/06/28 12:48:10;;;;;;;2.38;1.55;;;;;;;;;;5093485;28;20032;-85
2022/06/28 12:50:35;;;;;;;1.63;1.40;;;;;;;;;;5092378;28;20479;-83
2022/06/28 12:53:01;;;;;;;3.35;1.73;;;;;;;;;;5088101;28;20364;-83
2022/06/28 12:55:26;;;;;;;2.10;1.50;;;;;;;;;;5089610;28;20036;-84
2022/06/28 12:57:52;;;;;;;1.67;1.40;;;;;;;;;;5091567;28;20064;-85
2022/06/28 13:00:18;;;;;;;1.33;1.23;;;;;;;;;;5088286;28;20047;-86
2022/06/28 13:02:43;;;;;;;1.73;1.52;;;;;;;;;;5089983;28;20032;-85
2022/06/28 13:05:11;;;;;;;4.25;1.50;;;;;;;;;;5090106;28;20024;-86
2022/06/28 13:07:41;;;;;;;1.58;1.45;;;;;;;;;;5090803;28;20115;-87
2022/06/28 13:10:11;;;;;;;2.60;1.50;;;;;;;;;;5084626;28;20028;-88
2022/06/28 13:12:37;;;;;;;1.40;1.27;;;;;;;;;;5090162;28;20043;-88
2022/06/28 13:15:03;;;;;;;2.05;1.50;;;;;;;;;;5086131;28;20684;-87
2022/06/28 13:17:29;;;;;;;1.40;1.30;;;;;;;;;;5085428;28;20466;-87
2022/06/28 13:19:54;;;;;;;1.50;1.20;;;;;;;;;;5091653;28;20115;-86
2022/06/28 13:22:19;;;;;;;1.52;1.30;;;;;;;;;;5090728;28;20036;-87
2022/06/28 13:24:45;;;;;;;2.00;1.42;;;;;;;;;;5087976;28;20024;-84
2022/06/28 13:27:10;;;;;;;1.67;1.20;;;;;;;;;;5085732;28;20490;-85
2022/06/28 13:29:36;;;;;;;3.22;1.52;;;;;;;;;;5088154;28;20395;-86
2022/06/28 13:32:01;;;;;;;1.67;1.50;;;;;;;;;;5087584;28;20035;-85
2022/06/28 13:34:28;;;;;;;1.67;1.40;;;;;;;;;;5090387;28;20073;-88
2022/06/28 13:36:53;;;;;;;1.52;1.30;;;;;;;;;;5091895;28;20466;-85
2022/06/28 13:39:19;;;;;;;2.00;1.40;;;;;;;;;;5089951;28;20089;-86
2022/06/28 13:41:44;;;;;;;1.85;1.40;;;;;;;;;;5089607;28;20020;-85
2022/06/28 13:44:12;;;;;;;2.17;1.38;;;;;;;;;;5088296;28;20375;-86
2022/06/28 13:46:38;;;;;;;1.70;1.35;;;;;;;;;;5089384;28;20063;-85
2022/06/28 13:49:03;;;;;;;2.58;1.60;;;;;;;;;;5089237;28;20103;-86
2022/06/28 13:51:31;;;;;;;1.55;1.40;;;;;;;;;;5088319;28;20487;-87
2022/06/28 13:53:56;;;;;;;2.33;1.50;;;;;;;;;;5091691;28;20115;-86
2022/06/28 13:56:22;;;;;;;1.48;1.38;;;;;;;;;;5084019;28;20461;-87
2022/06/28 13:58:47;;;;;;;2.72;1.30;;;;;;;;;;5085742;28;20491;-86
2022/06/28 14:01:13;;;;;;;2.67;1.40;;;;;;;;;;5086031;28;20107;-85
2022/06/28 14:03:38;;;;;;;1.40;1.23;;;;;;;;;;5086082;28;20071;-84
2022/06/28 14:06:03;;;;;;;2.45;1.50;;;;;;;;;;5083513;28;20024;-84
2022/06/28 14:08:29;;;;;;;1.73;1.60;;;;;;;;;;5088782;28;20032;-85
2022/06/28 14:10:54;;;;;;;1.88;1.38;;;;;;;;;;5085843;28;20028;-86
2022/06/28 14:13:25;;;;;;;1.58;1.30;;;;;;;;;;5092204;28;20027;-85
2022/06/28 14:15:51;;;;;;;1.67;1.50;;;;;;;;;;5089278;28;20028;-83
2022/06/28 14:18:18;;;;;;;1.30;1.20;;;;;;;;;;5091800;28;20056;-84
2022/06/28 14:20:43;;;;;;;2.15;1.30;;;;;;;;;;5083044;28;20032;-83
2022/06/28 14:23:09;;;;;;;2.10;1.38;;;;;;;;;;5092143;28;20356;-89
2022/06/28 14:25:34;;;;;;;2.28;1.55;;;;;;;;;;5090726;28;20039;-88
2022/06/28 14:28:00;;;;;;;2.15;1.60;;;;;;;;;;5090435;28;20059;-88
2022/06/28 14:30:26;;;;;;;1.77;1.40;;;;;;;;;;5091368;28;20533;-87
2022/06/28 14:32:51;;;;;;;3.15;1.40;;;;;;;;;;5089280;28;20073;-87
2022/06/28 14:35:17;;;;;;;1.60;1.48;;;;;;;;;;5084384;28;20020;-87
2022/06/28 14:37:42;;;;;;;3.03;1.60;;;;;;;;;;5084601;28;20106;-87
2022/06/28 14:40:11;;;;;;;2.25;1.63;;;;;;;;;;5085589;28;20043;-87
2022/06/28 14:42:36;;;;;;;1.90;1.50;;;;;;;;;;5084668;28;20392;-86
2022/06/28 14:45:08;;;;;;;2.08;1.70;;;;;;;;;;5088660;28;20035;-86
2022/06/28 14:47:34;;;;;;;1.50;1.40;;;;;;;;;;5090327;28;20032;-86
2022/06/28 14:50:00;;;;;;;1.83;1.45;;;;;;;;;;5083424;28;20048;-87
2022/06/28 14:52:25;;;;;;;2.20;1.60;;;;;;;;;;5088873;28;20060;-86
2022/06/28 14:54:52;;;;;;;1.90;1.67;;;;;;;;;;5091232;28;20032;-86
2022/06/28 14:57:17;;;;;;;3.28;1.50;;;;;;;;;;5092999;28;20372;-86